Hakodate Airport
RJCH : now visible

Airfield :











YOU CAN JOIN US ON...

 
LOGIN :

Register | Disclaimer

   EN    FR    IT 

 









Legend :    VFR   Marginal VFR   IFR   Intensive IFR   Very Intensive IFR
Visi :
Ceiling :
>= 8 km
>= 3000ft
5 to 8 km
1000 to 3000 ft
1500m to 5 km
500 to 1000 ft
800 to 1500m
200 to 500 ft
< 800m
< 200 ft
Symbols :   Thunderstorms  Fog  Heavy snow  Heavy precipitations  Wind > 20 kt







- Airport Elevation : 151 ft
- IATA code : HKD


RJCH - Hakodate

CURRENT METAR :
  • 190600Z 09013KT 9999 FEW008 BKN012 BKN025 22/20 Q1013

EXPIRED METARs :
  • 190500Z 08012KT 9999 FEW010 SCT012 BKN030 23/20 Q1013
  • 190400Z 10012KT 060V130 9999 FEW010 SCT012 BKN025 24/21 Q1013

TAF TAF RJCH
Valid from the 19 at 06:00 until the 20 at 12:00 UTC


190514Z 1906/2012 10014KT 9999 FEW008 BKN015
TEMPO 1909/1918 FEW005 BKN008
TEMPO 1918/2000 3000 -SHRA BR FEW005 BKN008
TEMPO 2000/2003 FEW005 BKN008
No reported NOTAMs for that airfield.



MET'MAP, your aeronautical weather chart ! - Copyright ORBIFLY December 2007 - Disclaimer

ORBIFLY MET'MAP TEAM :

Programming & Development : Alexandra Zaïnal
Concept & Development : Baudouin d'Aumeries
Co-Development & Prog : Marc-Olivier Méhu
Technical & hardware support : Manuel Goepfert

Contact : metmap@orbifly.com




SOURCES & CREDITS :

   NOAA       Earth
Advisory